Sonic Adventure (DX): Overall Rankings

Records: Times | Rings | Scores | Races | Bosses | Freestyle
Leaders: Times | Rings | Scores | Races | Bosses | Freestyle | Overall
Rank Player Percent Points Date
1 Sonicspeedruner 97.9% 373 11-29-21
2 Gamepro011 97.6% 432 11-29-21
3 DarkPolarNight 96.2% 680 11-29-21
4 Jawzun 92.7% 1329 11-29-21
5 Dashjump 91.1% 1616 11-29-21
6 Avento128bits 89.2% 1969 11-29-21
7 DarkspinesSonic 89.1% 1981 11-29-21
8 ike6252 88.9% 2020 11-29-21
9 F-Man 87.1% 2355 11-29-21
10 Coolfansonic 86.9% 2385 11-29-21
11 TheRealShadnic 84.6% 2803 11-29-21
12 HyperSonic7701 84.3% 2866 11-29-21
13 Nim 83.6% 2998 11-29-21
14 yoshifan 82.1% 3263 11-29-21
15 frankoredstrato 81.7% 3350 11-29-21
16 francisco 80.7% 3517 11-29-21
17 Marth 80.4% 3577 11-29-21
18 InferSaime 79.2% 3792 11-29-21
19 PfoSonic 78.7% 3887 11-29-21
20 Paragod 78.3% 3958 11-29-21
21 THC98 77.5% 4115 11-29-21
22 Stefan 75.1% 4557 11-29-21
23 Dekuboy 73.9% 4761 11-29-21
24 RPGnutter 73.1% 4924 11-29-21
25 bertin 72.8% 4962 11-29-21
26 sonicam 70.8% 5329 11-29-21
27 drminus 69.3% 5617 11-29-21
28 chaos shadow 68.8% 5697 11-29-21
29 chainchump 65.3% 6347 11-29-21
30 Combo 64.9% 6415 11-29-21
31 SkyLights 63.7% 6636 11-29-21
32 xXMegaManXx 62.1% 6926 11-29-21
33 Diamond 61.7% 6997 11-29-21
34 Auriman1 59.7% 7376 11-29-21
35 GerbilSoft 59.7% 7378 11-29-21
36 OmegaDJ 59.6% 7393 11-29-21
37 magnum12 58.8% 7526 11-29-21
38 Thorn 56.6% 7935 11-29-21
39 P1 Pause 56.3% 7985 11-29-21
40 mike89 55.1% 8205 11-29-21
41 Dave Cramer 53.3% 8535 11-29-21
42 Groudon199 53.2% 8568 11-29-21
43 Parax 52.5% 8680 11-29-21
44 SPVLABS 52.2% 8742 11-29-21
45 Shadow Jacky 52.2% 8748 11-29-21
46 CoEmpathy 49.3% 9281 11-29-21
47 Zurggriff 48.7% 9382 11-29-21
48 Psymar 47.1% 9672 11-29-21
49 Niczur 47.0% 9686 11-29-21
50 Arch 46.3% 9817 11-29-21
51 Chao_Fan 45.5% 9961 11-29-21
52 mauserman 44.8% 10103 11-29-21
53 Quartz 44.3% 10191 11-29-21
54 teamblackarms 43.7% 10304 11-29-21
55 Psyknux 42.8% 10460 11-29-21
56 Cyan Ryan 42.4% 10541 11-29-21
57 James_Bertolli 42.4% 10542 11-29-21
58 NintenDan 42.1% 10599 11-29-21
59 Turbos 41.4% 10714 11-29-21
60 Webber3000 41.4% 10718 11-29-21
61 Ring Rush 41.2% 10755 11-29-21
62 Cream147 41.0% 10786 11-29-21
63 Fr3nZy 41.0% 10797 11-29-21
64 Siavash Tazari 40.9% 10807 11-29-21
65 videogamemaster777 40.9% 10810 11-29-21
66 buddychaos0415 40.2% 10931 11-29-21
67 SadisticMystic 39.7% 11038 11-29-21
68 ethmar 39.1% 11138 11-29-21
69 eggFL 38.9% 11178 11-29-21
70 Calfd 38.0% 11334 11-29-21
71 SB737 37.2% 11483 11-29-21
72 supersonic465 36.9% 11547 11-29-21
73 supersonicfan 36.2% 11664 11-29-21
74 FuzZerd 34.9% 11902 11-29-21
75 Aitamen 34.6% 11971 11-29-21
76 BigAL49 34.2% 12041 11-29-21
77 elecmouse101 34.1% 12059 11-29-21
78 danieldude 34.1% 12064 11-29-21
79 Austinf 33.2% 12215 11-29-21
80 metanightmare22 33.0% 12259 11-29-21
81 dabestgamer 32.7% 12311 11-29-21
82 MiStEr_ShAoLiN 32.4% 12373 11-29-21
83 Andrea Ritsu 31.6% 12522 11-29-21
84 Mastakirby 31.5% 12525 11-29-21
85 itsPersonnal 31.2% 12586 11-29-21
86 JamminX42 30.6% 12701 11-29-21
87 SilvertheAlmighty 30.5% 12724 11-29-21
88 Cybrax 30.4% 12726 11-29-21
89 WeegeeZV 30.3% 12760 11-29-21
90 VMU Player Banned 28.4% 13105 11-29-21
91 Staf 28.1% 13155 11-29-21
92 Omega Rafael Santos 27.8% 13208 11-29-21
93 The T 27.6% 13250 11-29-21
94 EngiNerd 27.5% 13273 11-29-21
95 lordmetalsonic 27.0% 13353 11-29-21
96 Hipertails12 26.5% 13447 11-29-21
97 welldooder64 26.3% 13478 11-29-21
98 GreatStar 26.1% 13522 11-29-21
99 The Great Lord Mick 26.0% 13536 11-29-21
100 Sondow 25.9% 13564 11-29-21
101 LinksDarkArrows 25.7% 13585 11-29-21
102 Skylace 24.7% 13777 11-29-21
103 a_moustache 23.8% 13949 11-29-21
104 Rolken 23.3% 14032 11-29-21
105 andy120195 22.6% 14162 11-29-21
106 Spinballwizard 21.6% 14341 11-29-21
107 Kogen Player Banned 21.6% 14342 11-29-21
108 Xia 21.5% 14358 11-29-21
109 f0rever_zer0 21.2% 14414 11-29-21
110 Twilisailor 21.1% 14427 11-29-21
111 Pokemonmaster888 21.0% 14452 11-29-21
112 Don 21.0% 14458 11-29-21
113 Cutiefox 20.9% 14476 11-29-21
114 Miles9999 20.9% 14481 11-29-21
115 Game_Complete 20.8% 14494 11-29-21
116 iden1 20.7% 14516 11-29-21
117 andres430 20.3% 14577 11-29-21
118 Cruizer 20.0% 14638 11-29-21
119 iSonicKid2K 19.9% 14649 11-29-21
120 SADXTryHard 19.6% 14709 11-29-21
121 GarnetPrincess 19.2% 14786 11-29-21
122 N 18.9% 14830 11-29-21
123 AxlThunder 18.7% 14874 11-29-21
124 knuckles_sonic8 18.4% 14928 11-29-21
125 Team_Yoshi 17.9% 15029 11-29-21
126 KinkyCadence 17.8% 15033 11-29-21
127 The Knuckles Chao 17.8% 15039 11-29-21
128 Termon 17.5% 15095 11-29-21
129 LittleBigness 17.4% 15120 11-29-21
130 FoxBoy 17.3% 15137 11-29-21
131 SonicWinDX 17.2% 15142 11-29-21
132 Zethor 17.2% 15159 11-29-21
133 Drakodan 16.5% 15283 11-29-21
134 Sonic Singularity 15.6% 15451 11-29-21
135 paulie9990 14.8% 15594 11-29-21
136 SilverSonic 14.2% 15696 11-29-21
137 MPit08 14.2% 15703 11-29-21
138 sonicd5 14.1% 15726 11-29-21
139 Mo Player Banned 13.8% 15776 11-29-21
140 koinu93 13.7% 15794 11-29-21
141 Cod4Scopes 13.3% 15871 11-29-21
142 HyperSonic64 13.2% 15886 11-29-21
143 booo95 13.1% 15902 11-29-21
144 Jerzia 13.1% 15908 11-29-21
145 Modest 13.0% 15910 11-29-21
146 Hunters13 13.0% 15920 11-29-21
147 Chawkk 12.8% 15951 11-29-21
148 SuperSonic101 12.7% 15965 11-29-21
149 Maxinfamily 12.6% 15988 11-29-21
150 R3FR4G 12.5% 16008 11-29-21
151 PsyBorg 12.4% 16036 11-29-21
152 LilZero 12.3% 16045 11-29-21
153 Kanimayo_Jp 12.3% 16052 11-29-21
154 Flying Fox 12.2% 16069 11-29-21
155 BrokenArthritis 12.1% 16089 11-29-21
156 Therio 11.7% 16159 11-29-21
157 sonicspeed 11.6% 16179 11-29-21
158 SonicAD 11.4% 16209 11-29-21
159 douglas 11.4% 16218 11-29-21
160 Matt_TY 11.2% 16255 11-29-21
161 thewaytodawnnn 11.1% 16267 11-29-21
162 ModifiedMonkee 11.0% 16291 11-29-21
163 Cooljay 10.5% 16368 11-29-21
164 SuperBlitzCraig 10.4% 16393 11-29-21
165 joecoolgames 10.4% 16400 11-29-21
166 SeaWolf 10.4% 16401 11-29-21
167 videogamer1014 10.2% 16437 11-29-21
168 AC-Tygo 10.0% 16476 11-29-21
169 welshmoose05 9.9% 16493 11-29-21
170 OddCook 9.7% 16519 11-29-21
171 crazy1993 9.6% 16550 11-29-21
172 TFEC Headshot 9.5% 16560 11-29-21
173 Mcshuggets 9.4% 16582 11-29-21
174 Mariobutch 9.2% 16608 11-29-21
175 niscool 9.1% 16633 11-29-21
176 Irregular Zero 9.0% 16646 11-29-21
177 nuckrieg 8.9% 16667 11-29-21
178 Shadowthegreat 8.8% 16687 11-29-21
179 superjupi 8.8% 16692 11-29-21
180 SirTobbii 8.7% 16709 11-29-21
181 sonamyfan666 8.5% 16743 11-29-21
182 iarebored 8.4% 16758 11-29-21
182 Powerjohn25 8.4% 16758 11-29-21
184 SaviourDC 8.3% 16775 11-29-21
184 SonicKnuckles 8.3% 16775 11-29-21
186 Badlex727 8.2% 16795 11-29-21
187 Werey 8.1% 16821 11-29-21
188 adf 8.0% 16831 11-29-21
189 Megaman EXE565 7.7% 16885 11-29-21
190 ArcticDragon 7.5% 16926 11-29-21
191 Platformer 7.4% 16952 11-29-21
192 timpkmn89 7.3% 16969 11-29-21
193 Swift Hobo 7.2% 16987 11-29-21
194 FocusSight64 7.1% 16992 11-29-21
195 wheatrich 7.0% 17009 11-29-21
196 Vicklaw 7.0% 17010 11-29-21
197 Rickyman48 6.9% 17042 11-29-21
198 KitsuneYamaro 6.8% 17052 11-29-21
199 Sm4sh 6.7% 17068 11-29-21
200 Triseena 6.5% 17108 11-29-21
201 Tethys 6.5% 17115 11-29-21
202 CyberShadow 6.3% 17141 11-29-21
203 Destroyer121121 6.3% 17143 11-29-21
204 Starlight Sable 6.3% 17144 11-29-21
205 slade23 6.3% 17150 11-29-21
206 dShadow 6.2% 17163 11-29-21
207 IsisDazs 6.1% 17178 11-29-21
208 BlankTH 5.9% 17219 11-29-21
209 Monkeh 5.8% 17241 11-29-21
210 SonicU260 5.6% 17265 11-29-21
211 DaDude 5.5% 17290 11-29-21
212 Richied 5.5% 17294 11-29-21
213 Crispian 5.5% 17296 11-29-21
213 Swinkly 5.5% 17296 11-29-21
215 Zip 5.4% 17314 11-29-21
216 VeritasDL 5.1% 17369 11-29-21
217 tal39h 5.0% 17380 11-29-21
218 ALundstrom10 4.9% 17393 11-29-21
219 Kirbymon30 4.9% 17397 11-29-21
220 soniccoloursunleashed 4.8% 17424 11-29-21
221 Drflash55 4.7% 17436 11-29-21
222 Bass 4.6% 17450 11-29-21
223 neaolas 4.5% 17469 11-29-21
223 Yish 4.5% 17469 11-29-21
225 zapp 4.5% 17470 11-29-21
226 UninspiredUsername 4.4% 17485 11-29-21
227 Sonicsuperstar1 4.4% 17489 11-29-21
228 superiorsonic 4.4% 17492 11-29-21
229 gamefreak1292 4.4% 17500 11-29-21
230 Sora_yx 4.2% 17531 11-29-21
231 Chaos_Overlord 4.0% 17566 11-29-21
232 TakaRikka 3.9% 17584 11-29-21
233 Valfore 3.9% 17590 11-29-21
234 Dage4Aquatic 3.8% 17607 11-29-21
235 ShinigamiMachine 3.7% 17618 11-29-21
236 ArthurVGCP 3.7% 17630 11-29-21
237 Regano1000 3.6% 17639 11-29-21
238 MK 3.5% 17655 11-29-21
239 Ace747 3.5% 17665 11-29-21
240 Jua Rever 3.3% 17692 11-29-21
241 Illidan 3.1% 17739 11-29-21
242 HHNNBBHHN 3.1% 17740 11-29-21
242 Venick409 3.1% 17740 11-29-21
244 Brian_pso 3.0% 17746 11-29-21
245 nman36 3.0% 17748 11-29-21
245 Sithwarrior26 3.0% 17748 11-29-21
247 Egor305 2.9% 17776 11-29-21
248 TheChaosEmeraIds 2.8% 17780 11-29-21
249 ingx24 2.8% 17781 11-29-21
250 Nickson98 2.8% 17791 11-29-21
251 dekki1234 2.8% 17793 11-29-21
251 SkyBon 2.8% 17793 11-29-21
253 FSSRandomvids 2.7% 17798 11-29-21
254 Fozer 2.7% 17811 11-29-21
255 sonic29887 2.6% 17821 11-29-21
256 Colomb_30 2.6% 17822 11-29-21
257 TheUltraBlur 2.6% 17826 11-29-21
258 Aiko 2.6% 17827 11-29-21
259 1stKirbyever 2.5% 17834 11-29-21
260 TimTH 2.4% 17852 11-29-21
261 Th4tN1nj4Turtl3 2.3% 17880 11-29-21
262 Cort_pso 2.2% 17889 11-29-21
263 ieatatsonic 2.2% 17895 11-29-21
264 Doom-9 2.2% 17896 11-29-21
265 Mariosonic15 2.2% 17905 11-29-21
266 MStitomix 2.1% 17919 11-29-21
267 HermitHelmet 2.1% 17923 11-29-21
268 arcfx1985 2.0% 17927 11-29-21
269 SuperSonic71087 2.0% 17939 11-29-21
270 Got4n 1.9% 17944 11-29-21
271 Artie 1.9% 17945 11-29-21
272 Jose_15 1.9% 17953 11-29-21
273 Questionguy555 1.9% 17954 11-29-21
274 djmat 1.8% 17968 11-29-21
275 SuperSonicfan9595 1.8% 17973 11-29-21
276 sonicandamy 1.7% 17994 11-29-21
277 LancexExWx 1.7% 17996 11-29-21
278 Paixii 1.6% 17999 11-29-21
279 son1cgu1tar 1.6% 18004 11-29-21
280 Heroes_Hater 1.5% 18016 11-29-21
281 BallzeH 1.5% 18020 11-29-21
282 Jamixesa 1.5% 18023 11-29-21
283 Mankster101 1.5% 18027 11-29-21
284 BecauseWarAnvil 1.5% 18030 11-29-21
285 Xandre69 1.4% 18035 11-29-21
286 Shanekilz 1.4% 18043 11-29-21
287 Crydio 1.4% 18044 11-29-21
288 SpiritDragon1995 1.4% 18046 11-29-21
289 MarewBFN 1.3% 18058 11-29-21
290 stanski 1.3% 18063 11-29-21
291 Sonique Hedgehog 1.3% 18066 11-29-21
292 Blue Infamy 1.2% 18080 11-29-21
293 p0ker 1.2% 18082 11-29-21
294 ErrortheCucco 1.1% 18091 11-29-21
295 Arthas 1.1% 18094 11-29-21
295 Rikum22 1.1% 18094 11-29-21
297 sonic1001 1.1% 18102 11-29-21
298 AJSIV 1.1% 18105 11-29-21
299 syco1098 1.0% 18108 11-29-21
300 IDGeek121 1.0% 18110 11-29-21
300 Sonic the Hedgehod16 1.0% 18110 11-29-21
302 WingedInsignia 1.0% 18112 11-29-21
303 ASINISTERTACO 1.0% 18118 11-29-21
304 sonicfan9 0.9% 18125 11-29-21
305 BlackArmsShadow 0.9% 18134 11-29-21
306 themachoman202 0.9% 18135 11-29-21
307 shadowblast63 Player Banned 0.9% 18143 11-29-21
308 Fivavoa 0.8% 18144 11-29-21
309 Mr. Jones 0.8% 18146 11-29-21
310 Ben1502 0.8% 18147 11-29-21
310 Greham Adelphis 0.8% 18147 11-29-21
312 darkstarblaze 0.8% 18148 11-29-21
312 MastaToken 0.8% 18148 11-29-21
314 TommyeAsY 0.8% 18149 11-29-21
315 FlandreScarlet9999vr 0.8% 18155 11-29-21
315 ptorflaxendrosis 0.8% 18155 11-29-21
317 Gvozdevik 0.8% 18157 11-29-21
318 Zeldocto 0.8% 18159 11-29-21
319 Knuckles 0.8% 18161 11-29-21
320 BeeAwwb 0.7% 18163 11-29-21
321 KaM Mark MaK 0.7% 18168 11-29-21
322 ShadouZaHejjihoggu 0.7% 18170 11-29-21
323 Sonic The Star 0.7% 18179 11-29-21
324 darkersupershadic 0.6% 18180 11-29-21
325 Sogeking 0.6% 18183 11-29-21
326 Sonic62 0.6% 18184 11-29-21
327 SonicK100 0.6% 18187 11-29-21
328 Sarger001 0.6% 18188 11-29-21
329 Grady219 0.6% 18189 11-29-21
330 dragondragon18 0.6% 18190 11-29-21
331 Shadygamerfreak 0.6% 18191 11-29-21
332 Jawaah 0.6% 18194 11-29-21
333 Antek 0.6% 18198 11-29-21
334 Klaus 0.5% 18200 11-29-21
334 SilverK 0.5% 18200 11-29-21
334 SpinDashMaster 0.5% 18200 11-29-21
337 BioShadow 0.5% 18208 11-29-21
338 Videogamer123 0.5% 18213 11-29-21
339 IcKY 0.5% 18216 11-29-21
340 isaihtb11 0.4% 18223 11-29-21
340 oTaiIilLsS 0.4% 18223 11-29-21
342 OhNoes! 0.4% 18228 11-29-21
343 zaktu40 0.4% 18230 11-29-21
344 Mad Andy 0.4% 18231 11-29-21
344 S-MS32X-S 0.4% 18231 11-29-21
346 gaara1234 0.4% 18233 11-29-21
347 gamed00d 0.3% 18239 11-29-21
348 Mister_Slick 0.3% 18244 11-29-21
349 Sonic06Fan 0.3% 18248 11-29-21
350 Rush Hero 0.3% 18250 11-29-21
351 ChaosNexuss 0.3% 18251 11-29-21
352 SonicMega167 0.2% 18256 11-29-21
353 sonknuck23 0.2% 18259 11-29-21
354 Iwannabelink 0.2% 18260 11-29-21
355 DanielTheFalcon 0.2% 18269 11-29-21
355 gamer1245 0.2% 18269 11-29-21
357 Burningskull123 0.1% 18275 11-29-21
358 Sonicontherun 0.1% 18287 11-29-21
359 Lil_Dude 0.1% 18289 11-29-21
360 antiwwe 0.0% 18293 11-29-21
361 Cbwade15 0.0% 18297 11-29-21
361 Genuine Hedgehog 0.0% 18297 11-29-21
363 Tyrouble 0.0% 18301 11-29-21
364 MakoHNM 0.0% 18308 11-29-21
364 MegabombBlade 0.0% 18308 11-29-21
364 neji_hyuuga 0.0% 18308 11-29-21
364 Over 0.0% 18308 11-29-21
364 sdj6707 Player Banned 0.0% 18308 11-29-21
364 Tran Sonic Fan Player Banned 0.0% 18308 11-29-21

This page is using the New Data Table System. [FUTURE]

Game ID: 3 | Category ID: 10
Hits: 81,108 | Hits This Month: 14 | DB Calls: 21 | Mem Usage: 1.00 MB | Time: 0.05s | Printable

The Sonic Center v3.9
Copyright 2003-2011 by The Sonic Center Team.